sensor_id;sensor_type;location;lat;lon;timestamp;pressure;altitude;pressure_sealevel;temperature;humidity
54592;BME280;40488;48.558;18.150;2022-12-31T11:27:40;100363.53;;;8.19;95.11
54592;BME280;40488;48.558;18.150;2022-12-31T11:30:21;100369.59;;;8.26;94.46
54592;BME280;40488;48.558;18.150;2022-12-31T11:33:01;100365.63;;;8.38;93.89
54592;BME280;40488;48.558;18.150;2022-12-31T11:35:49;100358.03;;;8.40;93.53
54592;BME280;40488;48.558;18.150;2022-12-31T11:38:27;100361.34;;;8.36;93.40
54592;BME280;40488;48.558;18.150;2022-12-31T11:41:04;100360.53;;;8.37;92.63
54592;BME280;40488;48.558;18.150;2022-12-31T11:43:39;100367.28;;;8.36;92.55
54592;BME280;40488;48.558;18.150;2022-12-31T11:46:24;100362.22;;;8.36;92.37
54592;BME280;40488;48.558;18.150;2022-12-31T11:49:12;100363.09;;;8.40;92.24
54592;BME280;40488;48.558;18.150;2022-12-31T11:52:00;100352.19;;;8.44;91.58
54592;BME280;40488;48.558;18.150;2022-12-31T11:54:52;100352.28;;;8.50;91.72
54592;BME280;40488;48.558;18.150;2022-12-31T11:57:31;100346.44;;;8.54;91.72
54592;BME280;40488;48.558;18.150;2022-12-31T12:00:13;100355.91;;;8.62;91.29
54592;BME280;40488;48.558;18.150;2022-12-31T12:02:44;100346.69;;;8.69;90.95
54592;BME280;40488;48.558;18.150;2022-12-31T12:05:17;100350.16;;;8.74;90.91
54592;BME280;40488;48.558;18.150;2022-12-31T12:07:46;100345.97;;;8.76;91.01
54592;BME280;40488;48.558;18.150;2022-12-31T12:10:23;100345.22;;;8.83;89.96
54592;BME280;40488;48.558;18.150;2022-12-31T12:13:12;100351.31;;;8.90;90.49
54592;BME280;40488;48.558;18.150;2022-12-31T12:15:46;100342.13;;;8.99;89.44
54592;BME280;40488;48.558;18.150;2022-12-31T12:18:39;100342.47;;;9.20;89.56
54592;BME280;40488;48.558;18.150;2022-12-31T12:21:10;100342.88;;;9.48;89.13
54592;BME280;40488;48.558;18.150;2022-12-31T12:23:41;100335.56;;;9.73;88.73
54592;BME280;40488;48.558;18.150;2022-12-31T12:26:27;100336.72;;;9.95;87.69
54592;BME280;40488;48.558;18.150;2022-12-31T12:28:58;100333.63;;;10.17;87.56
54592;BME280;40488;48.558;18.150;2022-12-31T12:31:29;100326.16;;;10.37;86.19
54592;BME280;40488;48.558;18.150;2022-12-31T12:34:00;100322.81;;;10.44;85.59
54592;BME280;40488;48.558;18.150;2022-12-31T12:36:30;100313.53;;;10.50;84.52
54592;BME280;40488;48.558;18.150;2022-12-31T12:39:00;100317.84;;;10.56;83.50
54592;BME280;40488;48.558;18.150;2022-12-31T12:41:29;100313.66;;;10.62;82.93
54592;BME280;40488;48.558;18.150;2022-12-31T12:44:04;100316.09;;;10.53;82.32
54592;BME280;40488;48.558;18.150;2022-12-31T12:46:38;100319.56;;;10.58;82.02
54592;BME280;40488;48.558;18.150;2022-12-31T12:49:21;100319.53;;;10.52;81.23
54592;BME280;40488;48.558;18.150;2022-12-31T12:52:05;100332.97;;;10.38;81.07
54592;BME280;40488;48.558;18.150;2022-12-31T12:54:46;100332.88;;;10.29;81.14
54592;BME280;40488;48.558;18.150;2022-12-31T12:57:21;100317.31;;;10.09;80.89
54592;BME280;40488;48.558;18.150;2022-12-31T13:00:03;100321.38;;;9.92;81.43
54592;BME280;40488;48.558;18.150;2022-12-31T13:05:36;100342.97;;;9.55;81.71
54592;BME280;40488;48.558;18.150;2022-12-31T13:08:19;100342.78;;;9.41;82.14
54592;BME280;40488;48.558;18.150;2022-12-31T13:11:01;100340.09;;;9.34;82.22
54592;BME280;40488;48.558;18.150;2022-12-31T13:13:38;100334.06;;;9.27;82.82
54592;BME280;40488;48.558;18.150;2022-12-31T13:16:15;100325.47;;;9.19;83.33
54592;BME280;40488;48.558;18.150;2022-12-31T13:18:56;100330.41;;;9.10;83.42
54592;BME280;40488;48.558;18.150;2022-12-31T13:21:34;100335.44;;;9.07;83.58
54592;BME280;40488;48.558;18.150;2022-12-31T13:24:15;100330.28;;;9.01;84.12
54592;BME280;40488;48.558;18.150;2022-12-31T13:26:46;100320.03;;;8.98;84.17
54592;BME280;40488;48.558;18.150;2022-12-31T13:29:21;100319.16;;;8.95;84.22
54592;BME280;40488;48.558;18.150;2022-12-31T13:31:53;100313.06;;;8.85;84.20
54592;BME280;40488;48.558;18.150;2022-12-31T13:34:29;100329.28;;;8.92;84.83
54592;BME280;40488;48.558;18.150;2022-12-31T13:37:03;100329.22;;;8.89;85.30
54592;BME280;40488;48.558;18.150;2022-12-31T13:39:37;100324.13;;;8.89;84.69
54592;BME280;40488;48.558;18.150;2022-12-31T13:42:15;100330.03;;;8.86;85.00
54592;BME280;40488;48.558;18.150;2022-12-31T13:44:52;100334.25;;;8.84;85.60
54592;BME280;40488;48.558;18.150;2022-12-31T13:47:28;100335.91;;;8.82;85.66
54592;BME280;40488;48.558;18.150;2022-12-31T13:50:07;100347.75;;;8.82;85.99
54592;BME280;40488;48.558;18.150;2022-12-31T13:52:45;100341.78;;;8.78;85.89
54592;BME280;40488;48.558;18.150;2022-12-31T13:55:19;100346.91;;;8.81;86.06
54592;BME280;40488;48.558;18.150;2022-12-31T13:57:51;100357.16;;;8.84;86.39
54592;BME280;40488;48.558;18.150;2022-12-31T14:00:24;100342.69;;;8.82;85.96
54592;BME280;40488;48.558;18.150;2022-12-31T14:03:00;100350.31;;;8.83;86.24
54592;BME280;40488;48.558;18.150;2022-12-31T14:05:37;100347.69;;;8.77;85.97
54592;BME280;40488;48.558;18.150;2022-12-31T14:08:08;100348.56;;;8.77;86.82
54592;BME280;40488;48.558;18.150;2022-12-31T14:10:47;100351.84;;;8.72;86.93
54592;BME280;40488;48.558;18.150;2022-12-31T14:13:36;100357.75;;;8.71;87.34
54592;BME280;40488;48.558;18.150;2022-12-31T14:16:17;100363.69;;;8.70;87.49
54592;BME280;40488;48.558;18.150;2022-12-31T14:18:54;100367.94;;;8.71;87.04
54592;BME280;40488;48.558;18.150;2022-12-31T14:21:32;100363.69;;;8.71;87.44
54592;BME280;40488;48.558;18.150;2022-12-31T14:24:08;100358.44;;;8.61;87.73
54592;BME280;40488;48.558;18.150;2022-12-31T14:26:43;100364.50;;;8.69;87.09
54592;BME280;40488;48.558;18.150;2022-12-31T14:29:24;100366.16;;;8.67;87.90
54592;BME280;40488;48.558;18.150;2022-12-31T14:35:03;100374.50;;;8.58;87.40
54592;BME280;40488;48.558;18.150;2022-12-31T14:37:48;100382.09;;;8.57;87.57
54592;BME280;40488;48.558;18.150;2022-12-31T14:40:25;100375.31;;;8.56;88.27
54592;BME280;40488;48.558;18.150;2022-12-31T14:43:06;100377.81;;;8.54;87.67
54592;BME280;40488;48.558;18.150;2022-12-31T14:45:47;100367.59;;;8.53;87.78
54592;BME280;40488;48.558;18.150;2022-12-31T14:48:29;100373.47;;;8.49;88.56
54592;BME280;40488;48.558;18.150;2022-12-31T14:51:01;100375.97;;;8.46;87.89
54592;BME280;40488;48.558;18.150;2022-12-31T14:53:33;100378.44;;;8.43;88.35
54592;BME280;40488;48.558;18.150;2022-12-31T14:56:03;100377.56;;;8.41;88.06
54592;BME280;40488;48.558;18.150;2022-12-31T14:58:34;100376.66;;;8.39;88.78
54592;BME280;40488;48.558;18.150;2022-12-31T15:01:05;100379.13;;;8.34;88.88
54592;BME280;40488;48.558;18.150;2022-12-31T15:03:37;100382.41;;;8.30;88.17
54592;BME280;40488;48.558;18.150;2022-12-31T15:09:16;100377.19;;;8.23;89.64
54592;BME280;40488;48.558;18.150;2022-12-31T15:12:08;100386.31;;;8.15;89.04
54592;BME280;40488;48.558;18.150;2022-12-31T15:14:54;100387.00;;;8.06;89.22
54592;BME280;40488;48.558;18.150;2022-12-31T15:17:33;100388.59;;;8.01;89.18
54592;BME280;40488;48.558;18.150;2022-12-31T15:22:58;100385.00;;;7.91;88.65
54592;BME280;40488;48.558;18.150;2022-12-31T15:25:31;100383.91;;;7.80;89.20
54592;BME280;40488;48.558;18.150;2022-12-31T15:28:25;100390.72;;;7.83;89.53
54592;BME280;40488;48.558;18.150;2022-12-31T15:31:01;100390.63;;;7.78;89.32
54592;BME280;40488;48.558;18.150;2022-12-31T15:33:35;100393.94;;;7.74;89.07
54592;BME280;40488;48.558;18.150;2022-12-31T15:36:12;100400.59;;;7.69;89.39
54592;BME280;40488;48.558;18.150;2022-12-31T15:38:41;100395.44;;;7.66;89.81
54592;BME280;40488;48.558;18.150;2022-12-31T15:41:26;100403.00;;;7.63;89.71
54592;BME280;40488;48.558;18.150;2022-12-31T15:43:59;100396.16;;;7.61;89.50
54592;BME280;40488;48.558;18.150;2022-12-31T15:46:31;100408.75;;;7.56;89.82
54592;BME280;40488;48.558;18.150;2022-12-31T15:49:02;100410.34;;;7.51;90.32
54592;BME280;40488;48.558;18.150;2022-12-31T15:51:47;100368.41;;;7.31;90.03
54592;BME280;40488;48.558;18.150;2022-12-31T15:54:24;100406.97;;;7.52;90.13
54592;BME280;40488;48.558;18.150;2022-12-31T15:56:57;100395.97;;;7.52;90.00
54592;BME280;40488;48.558;18.150;2022-12-31T15:59:35;100394.31;;;7.54;90.30
54592;BME280;40488;48.558;18.150;2022-12-31T16:02:18;100400.25;;;7.54;90.43
54592;BME280;40488;48.558;18.150;2022-12-31T16:04:49;100398.56;;;7.53;90.59
54592;BME280;40488;48.558;18.150;2022-12-31T16:07:18;100415.41;;;7.51;90.30
54592;BME280;40488;48.558;18.150;2022-12-31T16:09:51;100395.03;;;7.48;90.33
54592;BME280;40488;48.558;18.150;2022-12-31T16:12:24;100410.34;;;7.51;90.81
54592;BME280;40488;48.558;18.150;2022-12-31T16:15:00;100409.44;;;7.49;90.31
54592;BME280;40488;48.558;18.150;2022-12-31T16:17:31;100403.50;;;7.49;91.24
54592;BME280;40488;48.558;18.150;2022-12-31T16:20:18;100400.13;;;7.48;90.75
54592;BME280;40488;48.558;18.150;2022-12-31T16:22:51;100396.72;;;7.48;90.48
54592;BME280;40488;48.558;18.150;2022-12-31T16:25:22;100402.59;;;7.45;90.61
54592;BME280;40488;48.558;18.150;2022-12-31T16:28:02;100391.47;;;7.40;91.03
54592;BME280;40488;48.558;18.150;2022-12-31T16:30:32;100397.34;;;7.39;91.06
54592;BME280;40488;48.558;18.150;2022-12-31T16:33:05;100413.34;;;7.35;90.86
54592;BME280;40488;48.558;18.150;2022-12-31T16:35:39;100401.31;;;7.28;90.93
54592;BME280;40488;48.558;18.150;2022-12-31T16:38:13;100413.94;;;7.25;91.40
54592;BME280;40488;48.558;18.150;2022-12-31T16:40:45;100413.88;;;7.22;90.65
54592;BME280;40488;48.558;18.150;2022-12-31T16:43:38;100419.00;;;7.23;91.31
54592;BME280;40488;48.558;18.150;2022-12-31T16:46:10;100429.13;;;7.22;91.95
54592;BME280;40488;48.558;18.150;2022-12-31T16:48:44;100429.00;;;7.17;91.55
54592;BME280;40488;48.558;18.150;2022-12-31T16:51:17;100440.84;;;7.17;91.31
54592;BME280;40488;48.558;18.150;2022-12-31T16:53:48;100444.16;;;7.14;91.16
54592;BME280;40488;48.558;18.150;2022-12-31T16:56:20;100441.56;;;7.13;91.96
54592;BME280;40488;48.558;18.150;2022-12-31T16:58:58;100439.84;;;7.12;90.92
54592;BME280;40488;48.558;18.150;2022-12-31T17:01:31;100429.47;;;7.03;91.56
54592;BME280;40488;48.558;18.150;2022-12-31T17:04:04;100440.56;;;7.06;91.38
54592;BME280;40488;48.558;18.150;2022-12-31T17:06:36;100444.72;;;7.03;91.89
54592;BME280;40488;48.558;18.150;2022-12-31T17:09:12;100449.78;;;7.03;92.22
54592;BME280;40488;48.558;18.150;2022-12-31T17:11:43;100446.41;;;7.04;91.62
54592;BME280;40488;48.558;18.150;2022-12-31T17:14:17;100446.41;;;7.04;91.62
54592;BME280;40488;48.558;18.150;2022-12-31T17:16:55;100441.34;;;7.04;91.77
54592;BME280;40488;48.558;18.150;2022-12-31T17:19:40;100436.34;;;7.07;91.90
54592;BME280;40488;48.558;18.150;2022-12-31T17:22:16;100440.56;;;7.06;92.37
54592;BME280;40488;48.558;18.150;2022-12-31T17:24:59;100441.41;;;7.07;91.85
54592;BME280;40488;48.558;18.150;2022-12-31T17:27:29;100448.13;;;7.05;92.58
54592;BME280;40488;48.558;18.150;2022-12-31T17:30:21;100445.50;;;7.00;92.09
54592;BME280;40488;48.558;18.150;2022-12-31T17:33:01;100447.91;;;6.96;92.12
54592;BME280;40488;48.558;18.150;2022-12-31T17:35:33;100452.13;;;6.95;92.58
54592;BME280;40488;48.558;18.150;2022-12-31T17:40:59;100456.16;;;6.89;92.29
54592;BME280;40488;48.558;18.150;2022-12-31T17:43:33;100456.16;;;6.89;92.65
54592;BME280;40488;48.558;18.150;2022-12-31T17:46:09;100456.16;;;6.89;91.78
54592;BME280;40488;48.558;18.150;2022-12-31T17:48:39;100456.97;;;6.86;92.02
54592;BME280;40488;48.558;18.150;2022-12-31T17:51:08;100456.91;;;6.85;91.91
54592;BME280;40488;48.558;18.150;2022-12-31T17:53:37;100456.91;;;6.85;91.58
54592;BME280;40488;48.558;18.150;2022-12-31T17:56:06;100453.44;;;6.81;92.33
54592;BME280;40488;48.558;18.150;2022-12-31T17:58:45;100450.03;;;6.81;92.10
54592;BME280;40488;48.558;18.150;2022-12-31T18:01:18;100444.13;;;6.82;92.37
54592;BME280;40488;48.558;18.150;2022-12-31T18:03:48;100441.56;;;6.80;92.47
54592;BME280;40488;48.558;18.150;2022-12-31T18:06:17;100449.09;;;6.77;92.23
54592;BME280;40488;48.558;18.150;2022-12-31T18:08:46;100455.00;;;6.76;92.65
54592;BME280;40488;48.558;18.150;2022-12-31T18:11:17;100451.50;;;6.72;92.19
54592;BME280;40488;48.558;18.150;2022-12-31T18:13:47;100452.16;;;6.65;92.65
54592;BME280;40488;48.558;18.150;2022-12-31T18:16:17;100447.75;;;6.60;92.02
54592;BME280;40488;48.558;18.150;2022-12-31T18:18:46;100462.06;;;6.56;92.22
54592;BME280;40488;48.558;18.150;2022-12-31T18:21:17;100412.19;;;6.27;92.21
54592;BME280;40488;48.558;18.150;2022-12-31T18:23:48;100444.84;;;6.46;92.66
54592;BME280;40488;48.558;18.150;2022-12-31T18:26:18;100448.13;;;6.42;92.69
54592;BME280;40488;48.558;18.150;2022-12-31T18:28:48;100439.56;;;6.39;91.95
54592;BME280;40488;48.558;18.150;2022-12-31T18:31:20;100443.75;;;6.37;92.44
54592;BME280;40488;48.558;18.150;2022-12-31T18:33:51;100434.38;;;6.34;92.03
54592;BME280;40488;48.558;18.150;2022-12-31T18:36:21;100446.16;;;6.32;92.17
54592;BME280;40488;48.558;18.150;2022-12-31T18:38:50;100446.06;;;6.29;92.14
54592;BME280;40488;48.558;18.150;2022-12-31T18:41:21;100443.50;;;6.28;92.28
54592;BME280;40488;48.558;18.150;2022-12-31T18:43:51;100438.31;;;6.25;92.23
54592;BME280;40488;48.558;18.150;2022-12-31T18:46:22;100433.09;;;6.19;92.20
54592;BME280;40488;48.558;18.150;2022-12-31T18:48:54;100439.00;;;6.19;92.74
54592;BME280;40488;48.558;18.150;2022-12-31T18:51:23;100436.34;;;6.15;92.52
54592;BME280;40488;48.558;18.150;2022-12-31T18:53:58;100437.09;;;6.12;92.44
54592;BME280;40488;48.558;18.150;2022-12-31T18:56:27;100438.75;;;6.10;92.26
54592;BME280;40488;48.558;18.150;2022-12-31T18:58:56;100429.34;;;6.06;92.60
54592;BME280;40488;48.558;18.150;2022-12-31T19:01:30;100438.47;;;6.01;92.21
54592;BME280;40488;48.558;18.150;2022-12-31T19:04:01;100432.44;;;5.97;92.95
54592;BME280;40488;48.558;18.150;2022-12-31T19:06:30;100433.16;;;5.92;92.35
54592;BME280;40488;48.558;18.150;2022-12-31T19:08:59;100437.31;;;5.90;93.06
54592;BME280;40488;48.558;18.150;2022-12-31T19:11:28;100433.91;;;5.89;92.90
54592;BME280;40488;48.558;18.150;2022-12-31T19:13:59;100443.19;;;5.89;93.13
54592;BME280;40488;48.558;18.150;2022-12-31T19:16:30;100439.75;;;5.87;93.06
54592;BME280;40488;48.558;18.150;2022-12-31T19:18:58;100451.50;;;5.85;93.20
54592;BME280;40488;48.558;18.150;2022-12-31T19:21:34;100434.44;;;5.81;93.25
54592;BME280;40488;48.558;18.150;2022-12-31T19:24:10;100441.13;;;5.79;93.10
54592;BME280;40488;48.558;18.150;2022-12-31T19:26:40;100440.06;;;5.71;92.94
54592;BME280;40488;48.558;18.150;2022-12-31T19:29:15;100442.50;;;5.68;93.17
54592;BME280;40488;48.558;18.150;2022-12-31T19:31:46;100444.03;;;5.63;93.28
54592;BME280;40488;48.558;18.150;2022-12-31T19:34:15;100442.22;;;5.59;92.80
54592;BME280;40488;48.558;18.150;2022-12-31T19:36:44;100440.34;;;5.53;92.98
54592;BME280;40488;48.558;18.150;2022-12-31T19:39:16;100442.78;;;5.50;92.95
54592;BME280;40488;48.558;18.150;2022-12-31T19:41:46;100452.03;;;5.50;93.01
54592;BME280;40488;48.558;18.150;2022-12-31T19:44:25;100436.66;;;5.43;92.81
54592;BME280;40488;48.558;18.150;2022-12-31T19:46:55;100439.91;;;5.39;92.93
54592;BME280;40488;48.558;18.150;2022-12-31T19:49:24;100441.50;;;5.37;93.23
54592;BME280;40488;48.558;18.150;2022-12-31T19:51:52;100436.44;;;5.37;93.37
54592;BME280;40488;48.558;18.150;2022-12-31T19:54:21;100438.16;;;5.37;92.85
54592;BME280;40488;48.558;18.150;2022-12-31T19:56:50;100457.50;;;5.35;93.18
54592;BME280;40488;48.558;18.150;2022-12-31T19:59:19;100441.44;;;5.34;93.18
54592;BME280;40488;48.558;18.150;2022-12-31T20:01:48;100453.88;;;5.28;93.03
54592;BME280;40488;48.558;18.150;2022-12-31T20:04:18;100453.09;;;5.29;92.88
54592;BME280;40488;48.558;18.150;2022-12-31T20:06:48;100457.25;;;5.27;93.37
54592;BME280;40488;48.558;18.150;2022-12-31T20:09:16;100454.59;;;5.24;93.05
54592;BME280;40488;48.558;18.150;2022-12-31T20:11:45;100451.06;;;5.19;93.14
54592;BME280;40488;48.558;18.150;2022-12-31T20:14:14;100456.91;;;5.18;93.25
54592;BME280;40488;48.558;18.150;2022-12-31T20:16:43;100451.78;;;5.15;93.44
54592;BME280;40488;48.558;18.150;2022-12-31T20:19:11;100452.56;;;5.14;93.14
54592;BME280;40488;48.558;18.150;2022-12-31T20:21:42;100454.19;;;5.12;93.26
54592;BME280;40488;48.558;18.150;2022-12-31T20:24:11;100455.81;;;5.10;93.10
54592;BME280;40488;48.558;18.150;2022-12-31T20:26:40;100460.88;;;5.10;93.12
54592;BME280;40488;48.558;18.150;2022-12-31T20:29:08;100459.25;;;5.12;93.40
54592;BME280;40488;48.558;18.150;2022-12-31T20:31:38;100456.72;;;5.12;93.34
54592;BME280;40488;48.558;18.150;2022-12-31T20:34:08;100457.53;;;5.11;93.26
54592;BME280;40488;48.558;18.150;2022-12-31T20:36:37;100454.19;;;5.12;93.39
54592;BME280;40488;48.558;18.150;2022-12-31T20:39:08;100442.34;;;5.11;93.34
54592;BME280;40488;48.558;18.150;2022-12-31T20:41:37;100448.25;;;5.12;93.22
54592;BME280;40488;48.558;18.150;2022-12-31T20:44:05;100454.09;;;5.09;93.45
54592;BME280;40488;48.558;18.150;2022-12-31T20:46:34;100445.59;;;5.07;93.37
54592;BME280;40488;48.558;18.150;2022-12-31T20:49:03;100446.38;;;5.06;93.97
54592;BME280;40488;48.558;18.150;2022-12-31T20:51:33;100442.94;;;5.04;93.61
54592;BME280;40488;48.558;18.150;2022-12-31T20:54:04;100445.41;;;5.01;93.47
54592;BME280;40488;48.558;18.150;2022-12-31T20:56:38;100450.34;;;4.98;93.47
54592;BME280;40488;48.558;18.150;2022-12-31T20:59:08;100450.13;;;4.92;93.58
54592;BME280;40488;48.558;18.150;2022-12-31T21:01:37;100463.47;;;4.88;93.52
54592;BME280;40488;48.558;18.150;2022-12-31T21:04:26;100486.94;;;4.84;93.27
54592;BME280;40488;48.558;18.150;2022-12-31T21:06:55;100481.78;;;4.81;93.55
54592;BME280;40488;48.558;18.150;2022-12-31T21:09:24;100474.91;;;4.77;93.28
54592;BME280;40488;48.558;18.150;2022-12-31T21:11:54;100471.47;;;4.75;93.30
54592;BME280;40488;48.558;18.150;2022-12-31T21:14:34;100462.19;;;4.75;93.55
54592;BME280;40488;48.558;18.150;2022-12-31T21:17:10;100459.63;;;4.74;93.08
54592;BME280;40488;48.558;18.150;2022-12-31T21:19:39;100464.44;;;4.68;93.56
54592;BME280;40488;48.558;18.150;2022-12-31T21:22:08;100462.75;;;4.67;93.31
54592;BME280;40488;48.558;18.150;2022-12-31T21:24:37;100466.94;;;4.66;93.72
54592;BME280;40488;48.558;18.150;2022-12-31T21:27:08;100466.06;;;4.66;93.43
54592;BME280;40488;48.558;18.150;2022-12-31T21:29:37;100468.53;;;4.64;93.46
54592;BME280;40488;48.558;18.150;2022-12-31T21:32:25;100469.47;;;4.66;93.59
54592;BME280;40488;48.558;18.150;2022-12-31T21:34:54;100471.13;;;4.66;93.35
54592;BME280;40488;48.558;18.150;2022-12-31T21:37:43;100471.13;;;4.66;93.54
54592;BME280;40488;48.558;18.150;2022-12-31T21:40:27;100456.81;;;4.66;93.56
54592;BME280;40488;48.558;18.150;2022-12-31T21:42:58;100460.81;;;4.60;93.34
54592;BME280;40488;48.558;18.150;2022-12-31T21:45:27;100469.31;;;4.62;93.35
54592;BME280;40488;48.558;18.150;2022-12-31T21:47:57;100466.78;;;4.62;93.53
54592;BME280;40488;48.558;18.150;2022-12-31T21:50:36;100475.22;;;4.62;93.33
54592;BME280;40488;48.558;18.150;2022-12-31T21:53:05;100469.31;;;4.62;93.68
54592;BME280;40488;48.558;18.150;2022-12-31T21:55:36;100480.19;;;4.61;93.28
54592;BME280;40488;48.558;18.150;2022-12-31T21:58:17;100479.38;;;4.60;93.41
54592;BME280;40488;48.558;18.150;2022-12-31T22:00:55;100474.34;;;4.62;93.22
54592;BME280;40488;48.558;18.150;2022-12-31T22:03:34;100473.50;;;4.61;93.66
54592;BME280;40488;48.558;18.150;2022-12-31T22:06:04;100484.47;;;4.62;93.62
54592;BME280;40488;48.558;18.150;2022-12-31T22:08:37;100485.25;;;4.61;93.83
54592;BME280;40488;48.558;18.150;2022-12-31T22:11:06;100475.16;;;4.61;93.58
54592;BME280;40488;48.558;18.150;2022-12-31T22:13:36;100461.31;;;4.51;93.69
54592;BME280;40488;48.558;18.150;2022-12-31T22:16:06;100475.84;;;4.57;93.50
54592;BME280;40488;48.558;18.150;2022-12-31T22:18:36;100485.09;;;4.56;93.52
54592;BME280;40488;48.558;18.150;2022-12-31T22:21:09;100476.59;;;4.54;93.58
54592;BME280;40488;48.558;18.150;2022-12-31T22:23:46;100479.09;;;4.53;93.53
54592;BME280;40488;48.558;18.150;2022-12-31T22:26:17;100477.97;;;4.46;93.94
54592;BME280;40488;48.558;18.150;2022-12-31T22:28:49;100477.03;;;4.43;93.34
54592;BME280;40488;48.558;18.150;2022-12-31T22:31:21;100468.41;;;4.38;93.75
54592;BME280;40488;48.558;18.150;2022-12-31T22:33:52;100472.59;;;4.37;93.75
54592;BME280;40488;48.558;18.150;2022-12-31T22:36:22;100474.34;;;4.38;93.63
54592;BME280;40488;48.558;18.150;2022-12-31T22:38:55;100474.25;;;4.37;93.70
54592;BME280;40488;48.558;18.150;2022-12-31T22:41:25;100476.03;;;4.39;93.76
54592;BME280;40488;48.558;18.150;2022-12-31T22:43:57;100465.94;;;4.39;93.66
54592;BME280;40488;48.558;18.150;2022-12-31T22:46:31;100451.53;;;4.37;93.82
54592;BME280;40488;48.558;18.150;2022-12-31T22:49:02;100461.41;;;4.31;93.49
54592;BME280;40488;48.558;18.150;2022-12-31T22:51:32;100460.44;;;4.27;93.66
54592;BME280;40488;48.558;18.150;2022-12-31T22:54:21;100467.19;;;4.27;93.98
54592;BME280;40488;48.558;18.150;2022-12-31T22:56:49;100454.53;;;4.27;93.71
54592;BME280;40488;48.558;18.150;2022-12-31T22:59:20;100446.88;;;4.25;93.30
54592;BME280;40488;48.558;18.150;2022-12-31T23:01:50;100451.09;;;4.25;93.83
54592;BME280;40488;48.558;18.150;2022-12-31T23:04:19;100457.66;;;4.20;93.96
54592;BME280;40488;48.558;18.150;2022-12-31T23:06:48;100464.28;;;4.18;93.74
54592;BME280;40488;48.558;18.150;2022-12-31T23:09:17;100459.22;;;4.18;93.94
54592;BME280;40488;48.558;18.150;2022-12-31T23:11:56;100466.03;;;4.19;94.02
54592;BME280;40488;48.558;18.150;2022-12-31T23:14:26;100468.53;;;4.19;93.93
54592;BME280;40488;48.558;18.150;2022-12-31T23:17:04;100461.75;;;4.18;93.58
54592;BME280;40488;48.558;18.150;2022-12-31T23:19:58;100454.88;;;4.14;93.81
54592;BME280;40488;48.558;18.150;2022-12-31T23:22:37;100460.75;;;4.13;93.28
54592;BME280;40488;48.558;18.150;2022-12-31T23:25:15;100462.47;;;4.14;93.91
54592;BME280;40488;48.558;18.150;2022-12-31T23:27:43;100459.16;;;4.15;93.95
54592;BME280;40488;48.558;18.150;2022-12-31T23:30:14;100460.84;;;4.16;93.68
54592;BME280;40488;48.558;18.150;2022-12-31T23:32:43;100467.63;;;4.17;93.49
54592;BME280;40488;48.558;18.150;2022-12-31T23:35:11;100465.91;;;4.16;93.80
54592;BME280;40488;48.558;18.150;2022-12-31T23:37:41;100476.88;;;4.16;93.34
54592;BME280;40488;48.558;18.150;2022-12-31T23:40:11;100471.81;;;4.16;93.44
54592;BME280;40488;48.558;18.150;2022-12-31T23:42:47;100468.38;;;4.14;93.83
54592;BME280;40488;48.558;18.150;2022-12-31T23:45:17;100469.13;;;4.12;93.78
54592;BME280;40488;48.558;18.150;2022-12-31T23:47:46;100479.22;;;4.12;93.77
54592;BME280;40488;48.558;18.150;2022-12-31T23:50:15;100469.13;;;4.12;93.31
54592;BME280;40488;48.558;18.150;2022-12-31T23:52:44;100470.00;;;4.12;93.38
54592;BME280;40488;48.558;18.150;2022-12-31T23:55:12;100480.75;;;4.08;93.34
54592;BME280;40488;48.558;18.150;2022-12-31T23:57:41;100473.09;;;4.05;93.49
